Time;durP1;ratioP1;P1;durP2;ratioP2;P2;SDS_P1;SDS_P2;PMS_P1;PMS_P2;Temp;Humidity;BMP_temperature;BMP_pressure;BME280_temperature;BME280_humidity;BME280_pressure;Samples;Min_cycle;Max_cycle;Signal;HPM_P1;HPM_P2
2021/11/20 00:02:31;;;;;;;8.63;7.78;;;;;;;9.78;77.00;100970.13;10490780;28;20048;-76
2021/11/20 00:07:33;;;;;;;7.82;7.20;;;;;;;9.92;76.36;100976.94;10518059;22;20079;-74
2021/11/20 00:12:38;;;;;;;10.48;8.43;;;;;;;9.78;76.71;100967.50;10503651;28;20048;-74
2021/11/20 00:17:40;;;;;;;8.43;7.82;;;;;;;9.81;76.54;100970.06;10505753;28;20044;-74
2021/11/20 00:22:43;;;;;;;9.10;7.97;;;;;;;9.93;75.98;100963.78;10504623;28;20041;-75
2021/11/20 00:27:45;;;;;;;9.73;8.82;;;;;;;9.94;76.10;100962.00;10504940;28;20040;-73
2021/11/20 00:33:03;;;;;;;9.43;8.48;;;;;;;9.98;75.70;100963.72;10504311;28;20051;-74
2021/11/20 00:38:06;;;;;;;9.98;9.18;;;;;;;9.98;75.84;100966.34;10485744;28;20098;-74
2021/11/20 00:43:10;;;;;;;10.10;8.75;;;;;;;10.07;75.25;100958.31;10502998;28;20037;-73
2021/11/20 00:48:13;;;;;;;10.63;9.65;;;;;;;9.95;76.21;100969.00;10485050;28;20412;-73
2021/11/20 00:53:15;;;;;;;9.18;8.43;;;;;;;10.10;75.37;100966.16;10484847;28;20044;-74
2021/11/20 00:58:20;;;;;;;9.57;8.77;;;;;;;10.01;75.82;100980.31;10484468;28;20143;-73
2021/11/20 01:03:23;;;;;;;9.73;8.82;;;;;;;10.02;75.88;100981.16;10502560;28;20367;-73
2021/11/20 01:08:29;;;;;;;9.68;8.77;;;;;;;10.09;75.47;100974.91;10484685;28;20062;-73
2021/11/20 01:13:33;;;;;;;8.40;7.72;;;;;;;10.12;75.53;100982.75;10484487;28;20071;-73
2021/11/20 01:18:36;;;;;;;9.15;8.25;;;;;;;10.13;75.60;100984.47;10501110;28;20048;-73
2021/11/20 01:23:56;;;;;;;9.48;8.57;;;;;;;10.11;75.85;100976.63;10483825;28;20052;-72
2021/11/20 01:28:59;;;;;;;8.18;7.47;;;;;;;10.14;75.71;100978.38;10467043;28;20048;-73
2021/11/20 01:34:17;;;;;;;8.73;7.80;;;;;;;10.29;74.98;100980.78;10468480;28;20044;-73
2021/11/20 01:39:26;;;;;;;10.05;9.02;;;;;;;10.00;76.39;100977.66;10482529;28;20045;-73
2021/11/20 01:44:57;;;;;;;10.75;9.68;;;;;;;9.97;76.89;100978.59;10482399;28;20135;-73
2021/11/20 01:50:14;;;;;;;12.02;11.02;;;;;;;10.04;76.96;100974.13;10480779;28;20094;-73
2021/11/20 01:55:35;;;;;;;10.98;9.93;;;;;;;10.06;76.97;100961.84;10482073;28;20105;-72
2021/11/20 02:01:01;;;;;;;11.75;10.70;;;;;;;10.00;77.29;100959.28;10483367;28;20091;-72
2021/11/20 02:06:25;;;;;;;12.43;11.32;;;;;;;10.09;76.75;100957.41;10481495;28;20052;-73
2021/11/20 02:11:48;;;;;;;12.50;11.40;;;;;;;9.95;77.61;100961.97;10482668;28;20472;-74
2021/11/20 02:17:10;;;;;;;13.52;12.35;;;;;;;10.10;77.17;100951.25;10481711;28;20127;-74
2021/11/20 02:22:48;;;;;;;13.50;12.25;;;;;;;9.97;78.02;100967.22;10481733;28;20417;-74
2021/11/20 02:27:56;;;;;;;15.18;12.40;;;;;;;9.93;78.17;100950.66;10481612;28;20052;-74
2021/11/20 02:33:06;;;;;;;13.45;12.15;;;;;;;9.98;78.08;100961.94;10480816;28;20036;-74
2021/11/20 02:38:28;;;;;;;13.90;12.65;;;;;;;10.04;77.75;100958.34;10480972;28;20048;-74
2021/11/20 02:43:35;;;;;;;13.38;12.10;;;;;;;10.00;77.76;100946.16;10463740;28;20033;-74
2021/11/20 02:48:47;;;;;;;12.50;11.23;;;;;;;10.03;77.89;100938.22;10481106;28;20052;-73
2021/11/20 02:53:57;;;;;;;13.05;12.10;;;;;;;9.86;78.61;100938.47;10480500;28;20056;-73
2021/11/20 02:59:00;;;;;;;13.73;12.50;;;;;;;10.00;78.16;100933.03;10480983;28;20071;-73
2021/11/20 03:04:12;;;;;;;13.77;12.63;;;;;;;10.01;78.09;100937.41;10480978;28;20049;-73
2021/11/20 03:09:15;;;;;;;13.65;12.60;;;;;;;9.91;78.44;100941.03;10480091;28;20421;-73
2021/11/20 03:14:20;;;;;;;13.98;12.93;;;;;;;9.97;78.24;100930.47;10479193;28;20127;-73
2021/11/20 03:19:28;;;;;;;14.65;13.43;;;;;;;10.02;77.85;100926.00;10479643;28;20045;-74
2021/11/20 03:24:31;;;;;;;14.23;13.13;;;;;;;9.97;78.32;100923.44;10479538;28;20044;-73
2021/11/20 03:29:35;;;;;;;14.60;13.38;;;;;;;9.91;78.61;100920.88;10480414;28;20045;-73
2021/11/20 03:34:38;;;;;;;14.50;13.23;;;;;;;10.00;77.95;100933.88;10480341;28;20041;-73
2021/11/20 03:39:41;;;;;;;13.45;12.43;;;;;;;9.87;78.71;100932.31;10496900;28;20049;-73
2021/11/20 03:44:45;;;;;;;15.38;13.85;;;;;;;9.97;77.99;100926.06;10479732;28;20049;-73
2021/11/20 03:49:47;;;;;;;15.02;13.70;;;;;;;10.04;78.07;100926.81;10479591;28;20056;-73
2021/11/20 03:54:51;;;;;;;14.65;13.43;;;;;;;10.00;78.09;100930.41;10479202;28;20448;-73
2021/11/20 03:59:54;;;;;;;14.73;13.48;;;;;;;9.94;78.37;100930.50;10478232;28;20064;-73
2021/11/20 04:04:57;;;;;;;14.82;13.65;;;;;;;10.00;78.22;100933.03;10478764;28;20076;-73
2021/11/20 04:09:59;;;;;;;16.00;14.50;;;;;;;9.99;78.08;100924.28;10478722;28;20136;-73
2021/11/20 04:15:01;;;;;;;16.75;15.25;;;;;;;9.92;78.74;100927.91;10485473;28;20386;-73
2021/11/20 04:20:07;;;;;;;15.70;14.20;;;;;;;9.99;78.41;100924.28;10486490;28;20045;-74
2021/11/20 04:25:11;;;;;;;16.35;14.82;;;;;;;9.97;78.86;100920.81;10469131;28;20132;-72
2021/11/20 04:30:23;;;;;;;15.90;14.32;;;;;;;10.05;78.79;100918.09;10502515;28;20044;-72
2021/11/20 04:35:26;;;;;;;16.08;14.63;;;;;;;9.99;78.69;100924.28;10487939;28;20028;-72
2021/11/20 04:40:28;;;;;;;16.85;15.23;;;;;;;9.97;78.86;100922.59;10502994;28;20476;-74
2021/11/20 04:45:33;;;;;;;16.70;15.27;;;;;;;10.09;78.56;100910.13;10470059;28;20041;-73
2021/11/20 04:50:36;;;;;;;15.15;13.95;;;;;;;10.05;78.69;100908.44;10486185;28;20482;-73
2021/11/20 04:55:39;;;;;;;16.83;15.43;;;;;;;10.12;78.57;100914.44;10487251;28;20048;-73
2021/11/20 05:00:48;;;;;;;17.23;15.82;;;;;;;10.08;78.63;100915.38;10485929;28;20494;-73
2021/11/20 05:05:55;;;;;;;16.35;14.93;;;;;;;9.97;79.40;100912.94;10485735;28;20464;-73
2021/11/20 05:10:58;;;;;;;17.27;15.90;;;;;;;10.02;78.97;100916.34;10503168;28;20131;-73
2021/11/20 05:16:02;;;;;;;17.23;15.45;;;;;;;10.06;79.50;100915.41;10468746;28;20094;-73
2021/11/20 05:21:05;;;;;;;18.08;16.60;;;;;;;9.88;81.19;100915.72;10502705;28;20033;-73
2021/11/20 05:26:11;;;;;;;18.05;16.52;;;;;;;9.89;81.69;100914.81;10468584;28;20041;-73
2021/11/20 05:31:19;;;;;;;19.08;17.45;;;;;;;9.88;82.05;100920.97;10502375;28;20045;-73
2021/11/20 05:36:26;;;;;;;19.65;17.42;;;;;;;9.84;82.27;100919.25;10484552;28;20044;-72
2021/11/20 05:41:30;;;;;;;22.75;17.50;;;;;;;9.75;82.92;100925.50;10483922;28;20071;-73
2021/11/20 05:46:32;;;;;;;21.35;19.23;;;;;;;9.70;83.53;100915.97;10483172;28;20051;-72
2021/11/20 05:51:36;;;;;;;21.77;19.95;;;;;;;9.74;84.03;100922.88;10483573;28;20426;-73
2021/11/20 05:56:42;;;;;;;22.63;20.10;;;;;;;9.74;84.56;100920.25;10483618;28;20083;-74
2021/11/20 06:02:02;;;;;;;24.27;22.02;;;;;;;9.64;85.64;100911.66;10500709;28;20049;-74
2021/11/20 06:07:12;;;;;;;27.13;23.05;;;;;;;9.53;87.27;100911.81;10512939;22;20079;-74
2021/11/20 06:12:16;;;;;;;28.08;22.48;;;;;;;9.55;87.56;100919.66;10484045;28;20044;-73
2021/11/20 06:17:19;;;;;;;25.02;21.80;;;;;;;9.41;88.93;100918.97;10482933;28;20533;-74
2021/11/20 06:22:24;;;;;;;23.20;20.83;;;;;;;9.32;88.94;100919.97;10484424;28;20067;-74
2021/11/20 06:27:29;;;;;;;22.92;21.02;;;;;;;9.26;89.53;100914.81;10482690;28;20135;-74
2021/11/20 06:32:40;;;;;;;24.95;22.58;;;;;;;9.21;89.64;100920.09;10468116;28;20131;-73
2021/11/20 06:38:01;;;;;;;25.30;22.75;;;;;;;9.27;89.07;100921.78;10500907;28;20052;-74
2021/11/20 06:43:05;;;;;;;27.88;23.02;;;;;;;9.28;89.33;100936.63;10482156;28;20056;-74
2021/11/20 06:48:09;;;;;;;25.83;23.42;;;;;;;9.19;89.20;100936.75;10483758;28;20052;-74
2021/11/20 06:53:15;;;;;;;25.23;22.63;;;;;;;9.29;88.37;100938.34;10483345;28;20139;-74
2021/11/20 07:04:11;;;;;;;27.63;22.35;;;;;;;9.40;88.58;100949.59;10482294;28;20056;-73
2021/11/20 07:09:16;;;;;;;25.63;22.33;;;;;;;9.22;88.92;100958.56;10501077;28;20044;-74
2021/11/20 07:14:18;;;;;;;31.75;21.73;;;;;;;9.20;89.00;100955.06;10483246;28;20037;-75
2021/11/20 07:19:21;;;;;;;25.98;22.35;;;;;;;9.33;88.38;100961.06;10466651;28;20509;-74
2021/11/20 07:24:26;;;;;;;23.35;21.10;;;;;;;9.18;89.58;100958.63;10501465;28;20040;-74
2021/11/20 07:29:28;;;;;;;22.45;19.67;;;;;;;9.32;88.66;100957.56;10490651;28;20102;-74
2021/11/20 07:34:39;;;;;;;19.92;18.08;;;;;;;9.34;88.17;100961.06;10488743;28;20052;-75
2021/11/20 07:39:41;;;;;;;24.60;18.65;;;;;;;9.25;88.83;100955.03;10500788;28;20052;-74
2021/11/20 07:44:43;;;;;;;19.60;17.85;;;;;;;9.12;89.90;100950.78;10500414;28;20044;-74
2021/11/20 07:49:47;;;;;;;19.70;18.20;;;;;;;9.18;89.68;100948.13;10489195;28;20044;-74
2021/11/20 07:54:51;;;;;;;19.30;17.48;;;;;;;9.12;90.02;100937.69;10490134;28;20098;-74
2021/11/20 08:00:15;;;;;;;18.17;16.52;;;;;;;9.27;88.99;100937.53;10489177;28;20139;-74
2021/11/20 08:05:37;;;;;;;18.87;16.83;;;;;;;9.12;89.98;100941.19;10491022;28;20045;-75
2021/11/20 08:10:55;;;;;;;18.33;16.50;;;;;;;9.19;89.67;100918.38;10475476;28;20048;-74
2021/11/20 08:15:57;;;;;;;19.50;17.50;;;;;;;9.14;90.22;100922.81;10473740;28;20113;-75
2021/11/20 08:21:27;;;;;;;18.33;16.73;;;;;;;9.30;89.35;100916.50;10491478;28;20049;-76
2021/11/20 08:26:47;;;;;;;19.00;16.52;;;;;;;9.28;89.53;100929.63;10490271;28;20072;-74
2021/11/20 08:31:51;;;;;;;22.70;18.75;;;;;;;9.17;90.25;100930.66;10489446;28;20044;-75
2021/11/20 08:36:59;;;;;;;24.27;17.85;;;;;;;9.29;89.30;100925.25;10471861;28;20090;-74
2021/11/20 08:42:19;;;;;;;19.42;17.40;;;;;;;9.43;88.92;100922.44;10487758;28;20044;-74
2021/11/20 08:47:21;;;;;;;18.80;17.00;;;;;;;9.39;89.50;100919.00;10488408;28;20076;-73
2021/11/20 08:52:23;;;;;;;19.58;17.90;;;;;;;9.32;89.79;100920.81;10471090;28;20049;-74
2021/11/20 08:57:28;;;;;;;20.50;18.88;;;;;;;9.40;89.27;100923.38;10486217;28;20052;-75
2021/11/20 09:02:56;;;;;;;20.08;18.13;;;;;;;9.43;88.60;100917.19;10486422;28;20083;-75
2021/11/20 09:08:06;;;;;;;18.85;16.92;;;;;;;9.51;87.47;100926.69;10470199;28;20494;-75
2021/11/20 09:13:19;;;;;;;21.10;18.95;;;;;;;9.54;87.15;100916.16;10487992;28;20044;-75
2021/11/20 09:18:23;;;;;;;20.45;18.75;;;;;;;9.62;86.67;100923.94;10488489;28;20545;-75
2021/11/20 09:23:26;;;;;;;19.88;17.95;;;;;;;9.58;86.66;100914.38;10480605;28;20048;-74
2021/11/20 09:29:03;;;;;;;23.65;17.35;;;;;;;9.77;85.26;100901.84;10469426;28;20061;-75
2021/11/20 09:34:05;;;;;;;20.83;18.77;;;;;;;9.70;85.45;100895.84;10466122;28;20409;-75
2021/11/20 09:39:10;;;;;;;19.25;17.55;;;;;;;9.75;85.50;100888.75;10468012;28;20045;-75
2021/11/20 09:44:15;;;;;;;19.80;18.30;;;;;;;9.79;85.20;100889.59;10448742;28;20047;-75
2021/11/20 09:49:29;;;;;;;22.55;20.17;;;;;;;9.75;85.98;100883.50;10442646;28;20048;-74
2021/11/20 09:54:37;;;;;;;20.75;18.77;;;;;;;9.87;84.96;100871.94;10441880;28;20040;-74
2021/11/20 09:59:59;;;;;;;23.40;20.77;;;;;;;9.85;84.86;100866.72;10464461;28;20068;-74
2021/11/20 10:05:07;;;;;;;21.48;19.30;;;;;;;10.02;84.00;100866.44;10501799;28;20409;-74
2021/11/20 10:10:14;;;;;;;20.55;18.73;;;;;;;9.94;84.41;100863.06;10499578;28;20086;-74
2021/11/20 10:15:24;;;;;;;19.02;17.52;;;;;;;10.11;83.33;100849.69;10483277;28;20468;-74
2021/11/20 10:20:38;;;;;;;21.35;19.42;;;;;;;10.05;83.38;100840.16;10482099;28;20151;-74
2021/11/20 10:26:05;;;;;;;21.92;19.85;;;;;;;10.09;83.25;100841.81;10500855;28;20041;-74
2021/11/20 10:31:15;;;;;;;21.75;19.73;;;;;;;10.07;83.99;100834.84;10482046;28;20048;-75
2021/11/20 10:36:17;;;;;;;21.15;19.17;;;;;;;10.18;83.17;100818.91;10458383;28;20445;-75
2021/11/20 10:41:41;;;;;;;19.15;17.45;;;;;;;10.23;82.51;100815.31;10441124;28;20509;-74
2021/11/20 10:47:00;;;;;;;18.80;17.23;;;;;;;10.27;82.68;100809.16;10480942;28;20075;-74
2021/11/20 10:52:18;;;;;;;18.33;16.73;;;;;;;10.24;82.88;100798.69;10500574;28;20512;-75
2021/11/20 10:57:23;;;;;;;17.45;16.25;;;;;;;10.33;83.25;100792.38;10482080;28;20106;-76
2021/11/20 11:02:45;;;;;;;19.30;17.58;;;;;;;10.38;82.84;100790.53;10499729;28;20037;-75
2021/11/20 11:07:53;;;;;;;17.75;16.17;;;;;;;10.27;83.51;100782.88;10465665;28;20080;-76
2021/11/20 11:13:04;;;;;;;16.25;14.75;;;;;;;10.31;83.17;100770.50;10499534;28;20044;-73
2021/11/20 11:18:30;;;;;;;15.63;14.52;;;;;;;10.26;83.05;100770.59;10483141;28;20071;-75
2021/11/20 11:24:08;;;;;;;14.77;13.20;;;;;;;10.27;83.75;100764.47;10488898;28;20563;-74
2021/11/20 11:29:25;;;;;;;14.18;13.18;;;;;;;10.23;83.87;100756.66;10508221;28;20076;-74
2021/11/20 11:34:33;;;;;;;14.23;13.13;;;;;;;10.30;83.80;100748.63;10509046;28;20044;-74
2021/11/20 11:39:38;;;;;;;12.70;11.85;;;;;;;10.19;84.25;100754.97;10489560;28;20048;-73
2021/11/20 11:45:04;;;;;;;13.85;12.68;;;;;;;10.20;84.20;100741.78;10490190;28;20055;-74
2021/11/20 11:50:21;;;;;;;13.63;12.43;;;;;;;10.17;84.47;100727.84;10489682;28;20044;-75
2021/11/20 11:55:43;;;;;;;;;;;;;;;10.30;83.19;100726.75;10491765;28;20083;-73
2021/11/20 12:01:03;;;;;;;12.40;11.27;;;;;;;10.18;83.71;100722.59;10507953;28;19927;-74
2021/11/20 12:11:37;;;;;;;12.52;11.38;;;;;;;10.08;83.59;100695.59;10418912;28;20076;-73
2021/11/20 12:16:48;;;;;;;11.52;10.52;;;;;;;10.20;82.68;100701.53;10402989;28;20037;-74
2021/11/20 12:22:18;;;;;;;12.73;11.82;;;;;;;10.01;83.80;100691.38;10396866;28;20073;-74
2021/11/20 12:27:47;;;;;;;14.38;13.13;;;;;;;10.03;84.01;100676.44;10419180;28;20041;-71
2021/11/20 12:33:04;;;;;;;15.77;14.57;;;;;;;10.13;83.00;100666.59;10403007;28;20461;-74
2021/11/20 12:38:07;;;;;;;;;;;;;;;9.96;83.98;100661.72;10422594;28;20045;-73
2021/11/20 12:43:46;;;;;;;13.18;12.18;;;;;;;10.11;82.27;100650.88;10420194;28;19928;-74
2021/11/20 12:48:49;;;;;;;13.23;12.13;;;;;;;10.10;82.45;100643.91;10420953;28;20517;-73
2021/11/20 12:53:51;;;;;;;10.40;9.55;;;;;;;10.06;81.79;100639.63;10420503;28;20558;-73
2021/11/20 12:58:57;;;;;;;10.20;9.48;;;;;;;10.09;81.68;100630.78;10420658;28;20041;-73
2021/11/20 13:04:11;;;;;;;9.32;8.63;;;;;;;10.11;80.72;100624.63;10419349;28;20042;-73
2021/11/20 13:09:32;;;;;;;9.40;8.75;;;;;;;10.08;81.39;100610.66;10419876;28;20073;-73
2021/11/20 13:15:08;;;;;;;9.10;8.40;;;;;;;9.97;81.45;100617.91;10401238;28;20051;-73
2021/11/20 13:20:34;;;;;;;9.87;9.07;;;;;;;9.96;82.26;100609.19;10419854;28;20053;-73
2021/11/20 13:25:54;;;;;;;9.43;8.83;;;;;;;10.01;82.53;100609.09;10401114;28;20141;-74
2021/11/20 13:31:01;;;;;;;8.88;8.18;;;;;;;9.90;82.58;100593.53;10419544;28;20280;-73
2021/11/20 13:36:08;;;;;;;9.93;9.15;;;;;;;9.85;82.13;100596.25;10419051;28;20041;-73
2021/11/20 13:41:10;;;;;;;8.55;7.85;;;;;;;9.79;83.17;100582.38;10418586;28;20042;-75
2021/11/20 13:46:18;;;;;;;9.35;8.65;;;;;;;9.69;83.78;100584.31;10417686;28;20050;-74
2021/11/20 13:51:25;;;;;;;9.52;8.82;;;;;;;9.75;82.94;100578.97;10419165;28;20136;-75
2021/11/20 13:56:27;;;;;;;;;;;;;;;9.78;82.51;100562.25;10419527;28;20132;-73
2021/11/20 14:01:47;;;;;;;10.57;9.38;;;;;;;9.65;82.87;100556.41;10418496;28;19921;-73
2021/11/20 14:07:10;;;;;;;10.63;9.75;;;;;;;9.65;83.39;100542.41;10417638;28;20037;-73
2021/11/20 14:12:15;;;;;;;10.45;9.55;;;;;;;9.67;82.42;100538.00;10417289;28;20049;-73
2021/11/20 14:17:18;;;;;;;10.07;9.30;;;;;;;9.74;80.96;100531.72;10399642;28;20077;-73
2021/11/20 14:22:22;;;;;;;9.93;9.00;;;;;;;9.73;80.90;100530.84;10416944;28;20430;-73
2021/11/20 14:27:24;;;;;;;10.02;9.23;;;;;;;9.82;79.84;100524.53;10399342;28;20056;-75
2021/11/20 14:32:26;;;;;;;9.85;9.05;;;;;;;9.76;79.12;100520.28;10398947;28;20128;-73
2021/11/20 14:37:28;;;;;;;9.40;8.60;;;;;;;9.82;78.41;100516.66;10399017;28;20469;-73
2021/11/20 14:42:33;;;;;;;10.15;9.35;;;;;;;9.69;79.03;100507.31;10416979;28;20037;-74
2021/11/20 14:47:44;;;;;;;9.52;8.82;;;;;;;9.71;78.82;100500.28;10418324;28;20095;-72
2021/11/20 14:52:47;;;;;;;10.38;9.57;;;;;;;9.70;78.39;100493.31;10400616;28;20109;-72
2021/11/20 14:57:54;;;;;;;9.10;8.40;;;;;;;9.65;78.30;100488.16;10415510;28;20053;-73
2021/11/20 15:02:56;;;;;;;;;;;;;;;9.74;76.93;100474.84;10414330;28;20037;-73
2021/11/20 15:07:58;;;;;;;9.00;8.30;;;;;;;9.77;76.53;100468.66;10415684;28;19975;-74
2021/11/20 15:13:00;;;;;;;9.15;8.45;;;;;;;9.71;76.70;100471.41;10415698;28;20116;-73
2021/11/20 15:18:01;;;;;;;9.57;8.88;;;;;;;9.58;77.15;100469.03;10415071;28;20041;-73
2021/11/20 15:23:03;;;;;;;9.20;8.50;;;;;;;9.62;76.70;100461.13;10397467;28;20040;-73
2021/11/20 15:28:06;;;;;;;9.10;8.32;;;;;;;9.68;75.19;100450.47;10397999;28;20454;-73
2021/11/20 15:33:08;;;;;;;9.27;8.48;;;;;;;9.59;74.90;100456.78;10414980;28;20471;-74
2021/11/20 15:38:10;;;;;;;8.13;7.53;;;;;;;9.58;74.76;100455.06;10398300;28;20063;-73
2021/11/20 15:43:14;;;;;;;8.57;7.88;;;;;;;9.53;74.85;100449.03;10414460;28;20041;-74
2021/11/20 15:48:16;;;;;;;8.43;7.72;;;;;;;9.47;74.86;100436.03;10415868;28;20459;-73
2021/11/20 15:53:18;;;;;;;8.15;7.55;;;;;;;9.38;75.58;100441.47;10414453;28;20038;-72
2021/11/20 15:58:20;;;;;;;7.82;7.30;;;;;;;9.46;74.48;100422.06;10413708;28;20072;-73
2021/11/20 16:03:22;;;;;;;8.68;8.07;;;;;;;9.49;74.28;100414.13;10413788;28;20051;-73
2021/11/20 16:08:24;;;;;;;8.68;7.97;;;;;;;9.63;73.32;100419.06;10400004;28;20056;-74
2021/11/20 16:13:28;;;;;;;9.18;7.82;;;;;;;9.57;73.48;100412.19;10422471;28;20050;-72
2021/11/20 16:18:30;;;;;;;8.35;7.75;;;;;;;9.40;73.79;100400.34;10403970;28;20049;-74
2021/11/20 16:23:38;;;;;;;9.18;8.38;;;;;;;9.52;72.92;100402.72;10402656;28;20045;-73
2021/11/20 16:28:40;;;;;;;9.30;8.52;;;;;;;9.29;74.23;100387.44;10420588;28;20041;-74
2021/11/20 16:33:42;;;;;;;9.10;8.40;;;;;;;9.47;72.52;100379.16;10420513;28;20033;-74
2021/11/20 16:38:49;;;;;;;9.15;8.45;;;;;;;9.53;71.79;100371.19;10403523;28;20049;-72
2021/11/20 16:43:51;;;;;;;9.77;8.88;;;;;;;9.30;72.93;100363.81;10404403;28;20054;-72
2021/11/20 16:48:57;;;;;;;8.32;7.63;;;;;;;9.43;71.80;100353.91;10402758;28;20064;-72
2021/11/20 16:54:00;;;;;;;12.35;11.35;;;;;;;9.22;72.28;100352.59;10420511;28;20077;-74
2021/11/20 16:59:03;;;;;;;13.68;12.48;;;;;;;9.41;70.57;100345.19;10420059;28;20499;-72
2021/11/20 17:04:05;;;;;;;10.43;9.63;;;;;;;9.33;70.75;100342.72;10401109;28;20041;-73
2021/11/20 17:09:07;;;;;;;12.32;11.35;;;;;;;9.45;69.64;100344.25;10401497;28;20491;-73
2021/11/20 17:14:10;;;;;;;10.00;9.10;;;;;;;9.43;69.91;100335.56;10401788;28;20096;-73
2021/11/20 17:19:11;;;;;;;9.35;8.65;;;;;;;9.30;69.78;100328.84;10420135;28;20073;-72
2021/11/20 17:24:13;;;;;;;8.85;8.15;;;;;;;9.30;69.62;100328.84;10401431;28;20045;-73
2021/11/20 17:29:16;;;;;;;9.10;8.40;;;;;;;9.33;69.47;100321.75;10402951;28;20046;-72
2021/11/20 17:34:18;;;;;;;8.35;7.80;;;;;;;9.06;70.54;100314.47;10418273;28;20446;-72
2021/11/20 17:39:20;;;;;;;8.10;7.40;;;;;;;9.31;68.74;100313.06;10401047;28;20072;-72
2021/11/20 17:44:22;;;;;;;8.65;8.00;;;;;;;9.29;68.78;100309.59;10417721;28;20038;-72
2021/11/20 17:49:24;;;;;;;8.38;7.70;;;;;;;9.19;69.53;100318.56;10419112;28;20132;-72
2021/11/20 17:54:27;;;;;;;8.95;8.15;;;;;;;9.29;68.67;100308.72;10418011;28;20128;-72
2021/11/20 17:59:29;;;;;;;9.30;8.55;;;;;;;9.20;69.08;100307.16;10417782;28;20049;-73
2021/11/20 18:04:31;;;;;;;9.40;8.63;;;;;;;9.28;68.61;100297.38;10417361;28;20079;-73
2021/11/20 18:09:34;;;;;;;11.40;10.23;;;;;;;9.03;69.74;100283.06;10470682;23;20044;-72
2021/11/20 18:14:36;;;;;;;9.10;8.40;;;;;;;9.09;69.10;100280.34;10502326;28;20047;-72
2021/11/20 18:19:38;;;;;;;9.70;9.00;;;;;;;9.06;69.01;100278.63;10502765;28;20123;-72
2021/11/20 18:24:41;;;;;;;9.13;8.43;;;;;;;9.00;69.23;100273.53;10500959;28;20079;-72
2021/11/20 18:29:43;;;;;;;9.27;8.57;;;;;;;8.98;69.43;100267.44;10500480;28;20087;-72
2021/11/20 18:34:45;;;;;;;10.05;9.02;;;;;;;9.06;68.71;100262.91;10501420;28;20501;-72
2021/11/20 18:39:46;;;;;;;9.82;9.05;;;;;;;9.00;68.64;100259.56;10500749;28;20050;-73
2021/11/20 18:44:48;;;;;;;10.95;9.85;;;;;;;8.92;69.29;100259.72;10483773;28;20047;-71
2021/11/20 18:49:50;;;;;;;11.65;10.73;;;;;;;8.91;69.00;100257.13;10483972;28;20553;-73
2021/11/20 18:54:52;;;;;;;10.88;10.15;;;;;;;8.92;69.36;100254.47;10500885;28;20478;-72
2021/11/20 18:59:54;;;;;;;11.93;10.98;;;;;;;8.90;68.63;100250.16;10500939;28;20045;-74
2021/11/20 19:04:57;;;;;;;11.50;10.70;;;;;;;8.78;68.88;100246.03;10500716;28;20504;-74
2021/11/20 19:10:01;;;;;;;12.40;11.40;;;;;;;8.90;68.55;100240.56;10500835;28;20074;-72
2021/11/20 19:15:06;;;;;;;12.65;11.73;;;;;;;8.91;68.56;100231.78;10500805;28;20068;-73
2021/11/20 19:20:10;;;;;;;12.48;11.43;;;;;;;8.93;68.64;100219.50;10501735;28;20119;-71
2021/11/20 19:25:13;;;;;;;12.35;11.35;;;;;;;8.73;69.77;100213.84;10500031;28;20116;-73
2021/11/20 19:30:17;;;;;;;14.23;13.20;;;;;;;9.01;68.69;100211.47;10500073;28;20075;-73
2021/11/20 19:35:19;;;;;;;13.45;12.45;;;;;;;8.84;69.41;100209.19;10499573;28;20071;-74
2021/11/20 19:40:21;;;;;;;15.57;14.18;;;;;;;8.77;69.56;100205.88;10481984;28;20041;-72
2021/11/20 19:45:24;;;;;;;16.45;15.20;;;;;;;8.77;69.28;100203.25;10507811;28;20068;-73
2021/11/20 19:50:26;;;;;;;16.40;15.13;;;;;;;8.78;68.94;100191.00;10506896;28;20101;-72
2021/11/20 19:55:27;;;;;;;16.63;15.43;;;;;;;8.75;68.68;100184.06;10488570;28;20044;-74
2021/11/20 20:00:30;;;;;;;16.77;15.60;;;;;;;8.80;68.49;100178.72;10507409;28;20419;-73
2021/11/20 20:05:32;;;;;;;17.85;16.55;;;;;;;8.61;68.71;100183.50;10506657;28;20045;-72
2021/11/20 20:10:34;;;;;;;18.20;16.80;;;;;;;8.56;69.31;100174.88;10507171;28;20123;-73
2021/11/20 20:15:36;;;;;;;18.38;17.08;;;;;;;8.41;69.46;100164.69;10506592;28;20047;-73
2021/11/20 20:20:40;;;;;;;16.55;15.35;;;;;;;8.51;69.65;100164.50;10507003;28;20040;-73
2021/11/20 20:25:42;;;;;;;18.55;17.05;;;;;;;8.44;69.77;100162.03;10488329;28;20052;-74
2021/11/20 20:30:44;;;;;;;20.58;18.95;;;;;;;8.56;68.62;100152.16;10506007;28;20062;-72
2021/11/20 20:35:46;;;;;;;20.30;18.60;;;;;;;8.52;68.77;100140.00;10505544;28;20147;-73
2021/11/20 20:40:48;;;;;;;19.75;18.33;;;;;;;8.42;69.62;100128.03;10504641;28;20063;-73
2021/11/20 20:45:50;;;;;;;18.77;17.48;;;;;;;8.39;69.39;100128.06;10503674;28;20037;-73
2021/11/20 20:50:51;;;;;;;19.38;17.90;;;;;;;8.42;70.11;100108.81;10504856;28;20048;-73
2021/11/20 20:55:54;;;;;;;19.33;17.60;;;;;;;8.43;69.89;100107.94;10503665;28;20043;-73
2021/11/20 21:01:14;;;;;;;19.73;18.15;;;;;;;8.46;69.50;100106.09;10503984;28;20045;-72
2021/11/20 21:06:16;;;;;;;19.23;17.80;;;;;;;8.29;70.56;100097.72;10505168;28;20046;-71
2021/11/20 21:11:18;;;;;;;19.50;17.92;;;;;;;8.38;70.12;100097.53;10504370;28;20520;-73
2021/11/20 21:16:20;;;;;;;18.83;17.42;;;;;;;8.34;69.50;100086.25;10469480;28;20044;-72
2021/11/20 21:26:48;;;;;;;19.55;18.15;;;;;;;8.18;70.45;100071.75;10502746;28;20122;-72
2021/11/20 21:31:51;;;;;;;19.45;17.95;;;;;;;8.23;69.52;100066.41;10502824;28;20044;-73
2021/11/20 21:36:56;;;;;;;20.13;18.73;;;;;;;8.12;70.22;100063.16;10485247;28;20044;-72
2021/11/20 21:41:58;;;;;;;19.65;17.95;;;;;;;8.07;70.33;100048.41;10502434;28;20077;-72
2021/11/20 21:47:01;;;;;;;19.88;18.42;;;;;;;8.18;69.71;100049.94;10502466;28;20041;-71
2021/11/20 21:52:05;;;;;;;20.05;18.17;;;;;;;8.11;70.27;100048.38;10466777;28;20048;-72
2021/11/20 21:57:09;;;;;;;20.95;19.35;;;;;;;8.08;70.43;100046.66;10501708;28;20486;-72
2021/11/20 22:02:12;;;;;;;19.20;17.38;;;;;;;8.26;70.00;100041.00;10501158;28;20119;-72
2021/11/20 22:07:15;;;;;;;18.50;17.08;;;;;;;8.26;69.79;100043.63;10500021;28;20128;-72
2021/11/20 22:12:17;;;;;;;19.00;17.60;;;;;;;8.28;69.47;100036.63;10483521;28;20055;-72
2021/11/20 22:17:20;;;;;;;19.15;17.75;;;;;;;7.99;70.60;100026.78;10500275;28;20041;-72
2021/11/20 22:22:22;;;;;;;20.83;19.25;;;;;;;7.98;70.56;100017.22;10482144;28;20049;-72
2021/11/20 22:27:26;;;;;;;19.73;18.33;;;;;;;8.04;70.32;100003.97;10500012;28;20124;-72
2021/11/20 22:32:28;;;;;;;20.48;18.85;;;;;;;7.96;70.46;99992.81;10481838;28;20051;-72
2021/11/20 22:37:30;;;;;;;18.77;17.40;;;;;;;7.89;71.25;99983.38;10465597;28;20044;-73
2021/11/20 22:42:32;;;;;;;18.52;17.23;;;;;;;8.01;70.70;99974.38;10500916;28;20048;-72
2021/11/20 22:47:36;;;;;;;19.60;18.10;;;;;;;8.02;71.10;99970.88;10481283;28;20045;-72
2021/11/20 22:52:59;;;;;;;18.58;17.00;;;;;;;8.10;70.45;99966.31;10498973;28;20048;-72
2021/11/20 22:58:02;;;;;;;19.27;17.75;;;;;;;7.93;71.54;99961.47;10499476;28;20068;-73
2021/11/20 23:03:10;;;;;;;18.23;16.83;;;;;;;7.89;71.62;99953.72;10481203;28;20048;-73
2021/11/20 23:08:14;;;;;;;18.80;17.40;;;;;;;7.84;72.08;99956.44;10498787;28;20132;-72
2021/11/20 23:13:18;;;;;;;18.77;17.27;;;;;;;7.88;71.28;99931.94;10480956;28;20386;-73
2021/11/20 23:18:21;;;;;;;18.70;17.30;;;;;;;7.64;72.45;99920.25;10507991;28;20045;-73
2021/11/20 23:23:22;;;;;;;18.23;16.83;;;;;;;7.65;72.07;99919.34;10513652;28;20070;-72
2021/11/20 23:28:30;;;;;;;19.60;18.08;;;;;;;7.57;72.43;99911.69;10513453;28;20090;-73
2021/11/20 23:33:33;;;;;;;18.85;17.35;;;;;;;7.52;72.69;99918.72;10512722;28;20123;-71
2021/11/20 23:38:35;;;;;;;18.83;17.50;;;;;;;7.45;73.14;99905.84;10513665;28;20490;-73
2021/11/20 23:43:37;;;;;;;17.70;16.40;;;;;;;7.60;72.36;99900.25;10494167;28;20045;-72